Time;durP1;ratioP1;P1;durP2;ratioP2;P2;SDS_P1;SDS_P2;PMS_P1;PMS_P2;Temp;Humidity;BMP_temperature;BMP_pressure;BME280_temperature;BME280_humidity;BME280_pressure;Samples;Min_cycle;Max_cycle;Signal;HPM_P1;HPM_P2
2023/02/12 07:01:17;;;;;;;;;21.33;15.67;;;;;;;;5548791;22;45281;-70
2023/02/12 07:03:46;;;;;;;;;22.67;18.33;;;;;;;;5018566;28;46170;-69
2023/02/12 07:06:11;;;;;;;;;22.67;19.33;;;;;;;;5014109;28;45621;-69
2023/02/12 07:08:36;;;;;;;;;20.00;17.67;;;;;;;;5016048;28;45465;-69
2023/02/12 07:11:02;;;;;;;;;18.00;13.33;;;;;;;;5022971;28;45515;-69
2023/02/12 07:13:27;;;;;;;;;15.33;11.33;;;;;;;;5017537;28;45427;-69
2023/02/12 07:15:52;;;;;;;;;16.00;13.00;;;;;;;;5016822;28;45484;-70
2023/02/12 07:18:18;;;;;;;;;18.00;15.00;;;;;;;;5015721;28;45716;-70
2023/02/12 07:20:43;;;;;;;;;18.67;13.67;;;;;;;;5016164;28;45714;-69
2023/02/12 07:23:11;;;;;;;;;9.00;9.00;;;;;;;;5017648;28;45451;-69
2023/02/12 07:25:36;;;;;;;;;15.00;14.33;;;;;;;;5015075;28;45736;-70
2023/02/12 07:28:01;;;;;;;;;14.67;11.33;;;;;;;;5015864;28;45395;-69
2023/02/12 07:30:26;;;;;;;;;9.00;9.00;;;;;;;;5016536;28;45525;-69
2023/02/12 07:32:52;;;;;;;;;12.67;10.67;;;;;;;;5014743;28;46025;-69
2023/02/12 07:35:17;;;;;;;;;9.00;9.00;;;;;;;;5018996;28;45567;-70
2023/02/12 07:37:42;;;;;;;;;7.00;6.33;;;;;;;;5017120;28;45438;-70
2023/02/12 07:40:07;;;;;;;;;8.67;6.33;;;;;;;;5016612;28;45280;-69
2023/02/12 07:42:33;;;;;;;;;8.00;8.00;;;;;;;;5016571;28;46091;-69
2023/02/12 07:44:58;;;;;;;;;12.67;9.00;;;;;;;;5015835;28;45577;-69
2023/02/12 07:47:23;;;;;;;;;9.00;9.00;;;;;;;;5008729;28;45367;-68
2023/02/12 07:49:48;;;;;;;;;11.33;8.33;;;;;;;;5013772;28;45308;-69
2023/02/12 07:52:13;;;;;;;;;10.00;4.33;;;;;;;;5015371;28;46206;-70
2023/02/12 07:54:39;;;;;;;;;11.67;10.33;;;;;;;;5015231;28;45474;-70
2023/02/12 07:57:04;;;;;;;;;14.67;12.67;;;;;;;;5019524;28;45477;-70
2023/02/12 07:59:29;;;;;;;;;11.67;11.33;;;;;;;;5019699;28;45531;-70
2023/02/12 08:01:55;;;;;;;;;15.67;12.33;;;;;;;;5018356;28;45597;-70
2023/02/12 08:04:21;;;;;;;;;11.33;9.00;;;;;;;;5017943;28;45591;-70
2023/02/12 08:06:48;;;;;;;;;13.00;11.33;;;;;;;;5019436;28;45488;-70
2023/02/12 08:09:15;;;;;;;;;12.67;10.67;;;;;;;;5022463;28;45324;-70
2023/02/12 08:11:41;;;;;;;;;15.67;12.33;;;;;;;;5019491;28;46312;-69
2023/02/12 08:14:07;;;;;;;;;8.00;7.67;;;;;;;;5019194;28;45508;-70
2023/02/12 08:16:35;;;;;;;;;13.00;9.00;;;;;;;;5019371;28;45486;-70
2023/02/12 08:19:00;;;;;;;;;11.33;8.67;;;;;;;;5019939;28;45574;-69
2023/02/12 08:21:26;;;;;;;;;11.67;11.33;;;;;;;;5017106;28;45447;-69
2023/02/12 08:23:52;;;;;;;;;9.33;8.00;;;;;;;;5019437;28;45468;-70
2023/02/12 08:26:19;;;;;;;;;9.00;8.00;;;;;;;;5020148;28;45724;-71
2023/02/12 08:28:48;;;;;;;;;7.00;7.00;;;;;;;;5016179;28;45425;-70
2023/02/12 08:31:16;;;;;;;;;8.00;7.00;;;;;;;;5018914;28;46394;-71
2023/02/12 08:33:42;;;;;;;;;5.33;5.33;;;;;;;;5019333;28;45485;-70
2023/02/12 08:36:10;;;;;;;;;10.33;7.00;;;;;;;;5017536;28;45472;-69
2023/02/12 08:38:36;;;;;;;;;5.00;3.67;;;;;;;;5019159;28;45726;-69
2023/02/12 08:41:02;;;;;;;;;7.33;6.00;;;;;;;;5018907;28;45535;-69
2023/02/12 08:43:27;;;;;;;;;10.33;7.00;;;;;;;;5018632;28;45442;-69
2023/02/12 08:45:53;;;;;;;;;9.33;9.33;;;;;;;;5013173;28;45307;-69
2023/02/12 08:48:19;;;;;;;;;7.00;7.00;;;;;;;;5019339;28;45395;-69
2023/02/12 08:50:44;;;;;;;;;5.33;3.33;;;;;;;;5011999;28;45807;-70
2023/02/12 08:53:10;;;;;;;;;5.33;5.33;;;;;;;;5017104;28;45541;-70
2023/02/12 08:55:35;;;;;;;;;7.67;7.00;;;;;;;;5019216;28;45394;-70
2023/02/12 08:58:01;;;;;;;;;7.33;5.00;;;;;;;;5018665;28;45454;-70
2023/02/12 09:00:26;;;;;;;;;8.33;7.00;;;;;;;;5018607;28;47119;-69
2023/02/12 09:02:52;;;;;;;;;8.33;5.00;;;;;;;;5018143;28;45362;-69
2023/02/12 09:05:17;;;;;;;;;8.67;8.67;;;;;;;;5019176;28;45351;-69
2023/02/12 09:07:42;;;;;;;;;6.33;5.00;;;;;;;;5018653;28;45418;-69
2023/02/12 09:10:07;;;;;;;;;9.00;7.67;;;;;;;;5016364;28;46247;-69
2023/02/12 09:12:32;;;;;;;;;5.33;4.33;;;;;;;;5011452;28;45453;-69
2023/02/12 09:14:58;;;;;;;;;4.33;4.33;;;;;;;;5018677;28;46018;-69
2023/02/12 09:17:26;;;;;;;;;5.00;5.00;;;;;;;;5019441;28;45469;-69
2023/02/12 09:19:51;;;;;;;;;4.33;4.00;;;;;;;;5018119;28;46927;-69
2023/02/12 09:22:16;;;;;;;;;8.00;5.00;;;;;;;;5018809;28;45414;-71
2023/02/12 09:24:41;;;;;;;;;5.33;5.00;;;;;;;;5017982;28;45740;-72
2023/02/12 09:27:07;;;;;;;;;6.67;6.67;;;;;;;;5021700;28;45489;-69
2023/02/12 09:29:32;;;;;;;;;6.00;6.00;;;;;;;;5018720;28;45477;-70
2023/02/12 09:31:58;;;;;;;;;8.33;4.67;;;;;;;;5014655;28;45577;-70
2023/02/12 09:34:23;;;;;;;;;6.00;6.00;;;;;;;;5018775;28;45474;-70
2023/02/12 09:36:48;;;;;;;;;6.33;4.67;;;;;;;;5017448;28;45662;-69
2023/02/12 09:39:13;;;;;;;;;4.00;4.00;;;;;;;;5017739;28;46176;-70
2023/02/12 09:41:50;;;;;;;;;7.00;5.00;;;;;;;;5009138;28;45403;-71
2023/02/12 09:44:15;;;;;;;;;7.67;6.33;;;;;;;;5013465;28;47578;-70
2023/02/12 09:46:47;;;;;;;;;4.00;4.00;;;;;;;;5017510;28;45475;-70
2023/02/12 09:49:31;;;;;;;;;7.00;5.00;;;;;;;;5018821;28;45656;-70
2023/02/12 09:51:57;;;;;;;;;7.00;6.00;;;;;;;;5016954;28;45838;-69
2023/02/12 09:54:24;;;;;;;;;6.67;5.00;;;;;;;;5018100;28;45244;-68
2023/02/12 09:56:57;;;;;;;;;5.33;5.00;;;;;;;;5016170;28;45635;-71
2023/02/12 09:59:31;;;;;;;;;5.33;4.67;;;;;;;;5009651;28;46176;-70
2023/02/12 10:01:57;;;;;;;;;5.00;5.00;;;;;;;;5017219;28;45676;-71
2023/02/12 10:04:23;;;;;;;;;4.00;4.00;;;;;;;;5017716;28;45660;-71
2023/02/12 10:06:56;;;;;;;;;2.00;2.00;;;;;;;;5017320;28;45707;-70
2023/02/12 10:09:40;;;;;;;;;7.00;6.33;;;;;;;;5019594;28;46180;-69
2023/02/12 10:12:06;;;;;;;;;3.67;3.67;;;;;;;;5012585;28;45485;-69
2023/02/12 10:14:31;;;;;;;;;6.33;6.33;;;;;;;;5016329;28;45362;-71
2023/02/12 10:17:11;;;;;;;;;5.00;5.00;;;;;;;;5017368;28;45356;-69
2023/02/12 10:19:36;;;;;;;;;5.67;5.67;;;;;;;;5016556;28;45633;-70
2023/02/12 10:22:01;;;;;;;;;4.33;4.00;;;;;;;;5017059;28;45474;-71
2023/02/12 10:24:47;;;;;;;;;6.00;5.00;;;;;;;;5017993;28;45477;-71
2023/02/12 10:27:16;;;;;;;;;3.00;3.00;;;;;;;;5017905;28;45391;-70
2023/02/12 10:29:43;;;;;;;;;5.67;4.67;;;;;;;;5016933;28;46313;-71
2023/02/12 10:32:15;;;;;;;;;3.67;3.33;;;;;;;;5007442;28;45546;-70
2023/02/12 10:34:40;;;;;;;;;7.00;6.67;;;;;;;;5014587;28;45481;-70
2023/02/12 10:37:17;;;;;;;;;7.00;7.00;;;;;;;;5020556;28;45585;-71
2023/02/12 10:39:47;;;;;;;;;7.00;7.00;;;;;;;;5015775;28;45655;-70
2023/02/12 10:42:18;;;;;;;;;7.33;7.33;;;;;;;;5014180;28;45462;-70
2023/02/12 10:44:44;;;;;;;;;5.00;4.33;;;;;;;;5017303;28;45517;-71
2023/02/12 10:47:16;;;;;;;;;7.00;6.33;;;;;;;;5011479;28;46510;-70
2023/02/12 10:49:41;;;;;;;;;6.00;6.00;;;;;;;;5017390;28;46207;-71
2023/02/12 10:52:07;;;;;;;;;6.33;6.33;;;;;;;;5017170;28;45324;-70
2023/02/12 10:54:32;;;;;;;;;9.33;7.67;;;;;;;;5017136;28;45532;-70
2023/02/12 10:56:58;;;;;;;;;7.33;6.33;;;;;;;;5016681;28;45454;-63
2023/02/12 10:59:24;;;;;;;;;8.00;6.67;;;;;;;;5013832;28;47187;-67
2023/02/12 11:01:49;;;;;;;;;6.00;6.00;;;;;;;;5015515;28;45423;-66
2023/02/12 11:04:19;;;;;;;;;8.00;6.67;;;;;;;;5015727;28;45421;-65
2023/02/12 11:06:56;;;;;;;;;5.67;5.67;;;;;;;;5008738;28;45778;-67
2023/02/12 11:09:34;;;;;;;;;6.33;6.33;;;;;;;;5018860;28;46132;-66
2023/02/12 11:12:00;;;;;;;;;6.67;6.67;;;;;;;;5014223;28;45598;-66
2023/02/12 11:14:25;;;;;;;;;5.00;5.00;;;;;;;;5014434;28;45650;-66
2023/02/12 11:16:55;;;;;;;;;6.00;6.00;;;;;;;;5016628;28;45398;-66
2023/02/12 11:19:24;;;;;;;;;9.00;6.00;;;;;;;;5015956;28;46488;-66
2023/02/12 11:21:50;;;;;;;;;10.00;7.00;;;;;;;;5013475;28;45533;-66
2023/02/12 11:24:20;;;;;;;;;8.67;8.67;;;;;;;;5017548;28;45558;-66
2023/02/12 11:26:45;;;;;;;;;6.00;6.00;;;;;;;;5016805;28;45458;-67
2023/02/12 11:29:18;;;;;;;;;3.33;3.33;;;;;;;;5015362;28;46297;-66
2023/02/12 11:31:57;;;;;;;;;10.00;8.67;;;;;;;;5015679;28;45414;-66
2023/02/12 11:34:23;;;;;;;;;7.00;7.00;;;;;;;;5018359;28;46282;-66
2023/02/12 11:36:49;;;;;;;;;7.00;7.00;;;;;;;;5016131;28;45495;-66
2023/02/12 11:39:20;;;;;;;;;5.33;4.00;;;;;;;;5017810;28;46194;-69
2023/02/12 11:41:49;;;;;;;;;8.33;7.00;;;;;;;;5012236;28;45615;-70
2023/02/12 11:44:35;;;;;;;;;7.00;7.00;;;;;;;;5018032;28;45608;-70
2023/02/12 11:47:05;;;;;;;;;9.67;9.33;;;;;;;;5016323;28;45807;-70
2023/02/12 11:49:33;;;;;;;;;10.00;9.00;;;;;;;;5015120;28;46164;-70
2023/02/12 11:52:00;;;;;;;;;11.00;8.00;;;;;;;;5017730;28;45480;-70
2023/02/12 11:54:27;;;;;;;;;13.67;11.00;;;;;;;;5017473;28;45522;-70
2023/02/12 11:56:54;;;;;;;;;11.00;10.00;;;;;;;;5018631;28;45588;-70
2023/02/12 11:59:28;;;;;;;;;9.00;7.33;;;;;;;;5019044;28;46183;-68
2023/02/12 12:01:55;;;;;;;;;10.00;8.33;;;;;;;;5019365;28;45466;-69
2023/02/12 12:04:22;;;;;;;;;9.00;6.00;;;;;;;;5016956;28;45400;-68
2023/02/12 12:06:51;;;;;;;;;9.00;9.00;;;;;;;;5018186;28;45519;-68
2023/02/12 12:09:19;;;;;;;;;8.67;8.00;;;;;;;;5023324;28;45470;-68
2023/02/12 12:12:03;;;;;;;;;10.00;10.00;;;;;;;;5019956;28;45410;-67
2023/02/12 12:14:32;;;;;;;;;11.33;9.67;;;;;;;;5014479;28;45217;-67
2023/02/12 12:20:00;;;;;;;;;9.33;8.67;;;;;;;;5016953;28;45969;-68
2023/02/12 12:22:25;;;;;;;;;9.00;8.00;;;;;;;;5012881;28;45494;-67
2023/02/12 12:25:03;;;;;;;;;13.33;10.00;;;;;;;;5018428;28;45327;-68
2023/02/12 12:28:02;;;;;;;;;13.00;11.00;;;;;;;;5017139;28;45530;-68
2023/02/12 12:30:36;;;;;;;;;12.33;11.00;;;;;;;;5017901;28;47000;-68
2023/02/12 12:33:03;;;;;;;;;10.67;9.33;;;;;;;;5017218;28;45378;-67
2023/02/12 12:35:43;;;;;;;;;10.67;10.67;;;;;;;;5018542;28;45484;-67
2023/02/12 12:38:18;;;;;;;;;11.00;10.00;;;;;;;;5016848;28;45480;-67
2023/02/12 12:40:54;;;;;;;;;10.00;9.00;;;;;;;;5017195;28;47086;-67
2023/02/12 12:43:40;;;;;;;;;12.33;11.00;;;;;;;;5017624;28;45446;-67
2023/02/12 12:46:21;;;;;;;;;16.00;13.00;;;;;;;;5018385;28;45566;-67
2023/02/12 12:49:13;;;;;;;;;9.67;9.67;;;;;;;;5013555;28;45667;-65
2023/02/12 12:51:41;;;;;;;;;13.00;12.00;;;;;;;;5016542;28;47072;-67
2023/02/12 12:54:33;;;;;;;;;15.67;14.00;;;;;;;;5016766;28;46737;-67
2023/02/12 12:57:03;;;;;;;;;11.67;10.00;;;;;;;;5014497;28;45462;-66
2023/02/12 12:59:47;;;;;;;;;14.33;14.00;;;;;;;;5018477;28;45544;-67
2023/02/12 13:02:31;;;;;;;;;16.67;13.67;;;;;;;;5019258;28;45308;-66
2023/02/12 13:05:09;;;;;;;;;9.00;9.00;;;;;;;;5016250;28;45560;-66
2023/02/12 13:07:53;;;;;;;;;15.33;14.33;;;;;;;;5017659;28;45345;-67
2023/02/12 13:10:21;;;;;;;;;13.00;12.33;;;;;;;;5021266;28;46171;-67
2023/02/12 13:13:04;;;;;;;;;13.00;13.00;;;;;;;;5014059;28;45491;-67
2023/02/12 13:15:31;;;;;;;;;16.00;15.00;;;;;;;;5016795;28;45558;-67
2023/02/12 13:18:03;;;;;;;;;14.00;14.00;;;;;;;;5017981;28;45468;-67
2023/02/12 13:20:37;;;;;;;;;13.33;12.00;;;;;;;;5019049;28;45430;-67
2023/02/12 13:23:17;;;;;;;;;16.00;15.67;;;;;;;;5018254;28;47049;-67
2023/02/12 13:25:48;;;;;;;;;16.00;15.33;;;;;;;;5018392;28;45213;-67
2023/02/12 13:28:32;;;;;;;;;17.67;15.33;;;;;;;;5018381;28;45481;-67
2023/02/12 13:30:58;;;;;;;;;22.00;17.67;;;;;;;;5014818;28;47426;-67
2023/02/12 13:33:26;;;;;;;;;16.00;14.67;;;;;;;;5016713;28;45751;-66
2023/02/12 13:35:53;;;;;;;;;17.00;17.00;;;;;;;;5015051;28;45344;-66
2023/02/12 13:38:31;;;;;;;;;17.33;16.67;;;;;;;;5017597;28;45494;-66
2023/02/12 13:41:01;;;;;;;;;16.67;13.67;;;;;;;;5018116;28;46304;-66
2023/02/12 13:43:27;;;;;;;;;17.00;15.33;;;;;;;;5017008;28;46539;-65
2023/02/12 13:45:58;;;;;;;;;18.33;17.00;;;;;;;;5012825;28;45599;-66
2023/02/12 13:48:32;;;;;;;;;20.33;19.67;;;;;;;;5015239;28;45363;-65
2023/02/12 13:51:04;;;;;;;;;13.67;13.67;;;;;;;;5015792;28;45475;-66
2023/02/12 13:53:48;;;;;;;;;18.67;17.67;;;;;;;;5015482;28;46391;-68
2023/02/12 13:56:28;;;;;;;;;23.00;17.67;;;;;;;;5005309;28;46904;-65
2023/02/12 13:58:59;;;;;;;;;19.33;18.00;;;;;;;;5017920;28;45376;-66
2023/02/12 14:01:38;;;;;;;;;18.00;16.33;;;;;;;;5009961;28;45822;-66
2023/02/12 14:04:33;;;;;;;;;21.33;18.67;;;;;;;;5010673;28;46122;-65
2023/02/12 14:07:05;;;;;;;;;14.67;13.00;;;;;;;;5015160;28;45587;-66
2023/02/12 14:09:36;;;;;;;;;16.00;14.00;;;;;;;;5015065;28;46363;-65
2023/02/12 14:12:03;;;;;;;;;15.00;15.00;;;;;;;;5018063;28;45452;-65
2023/02/12 14:14:31;;;;;;;;;17.33;16.00;;;;;;;;5017970;28;46147;-66
2023/02/12 14:16:56;;;;;;;;;15.67;15.00;;;;;;;;5017065;28;45638;-65
2023/02/12 14:19:37;;;;;;;;;14.33;12.00;;;;;;;;5016751;28;45448;-67
2023/02/12 14:22:13;;;;;;;;;18.00;15.67;;;;;;;;5013714;28;45556;-67
2023/02/12 14:24:38;;;;;;;;;14.67;13.33;;;;;;;;5016167;28;45407;-67
2023/02/12 14:27:05;;;;;;;;;19.67;17.67;;;;;;;;5014362;28;45526;-66
2023/02/12 14:29:30;;;;;;;;;14.00;14.00;;;;;;;;5014879;28;45520;-66
2023/02/12 14:31:55;;;;;;;;;16.67;16.00;;;;;;;;5017174;28;45973;-66
2023/02/12 14:34:20;;;;;;;;;14.00;14.00;;;;;;;;5016540;28;46220;-66
2023/02/12 14:36:47;;;;;;;;;15.33;15.33;;;;;;;;5013775;28;45498;-68
2023/02/12 14:39:19;;;;;;;;;11.00;11.00;;;;;;;;5016331;28;45645;-66
2023/02/12 14:41:45;;;;;;;;;11.00;9.00;;;;;;;;5015549;28;45606;-65
2023/02/12 14:44:16;;;;;;;;;15.00;13.67;;;;;;;;5016990;28;46215;-66
2023/02/12 14:46:48;;;;;;;;;14.67;13.00;;;;;;;;5017126;28;45336;-65
2023/02/12 14:49:27;;;;;;;;;18.33;14.33;;;;;;;;5022403;28;45514;-66
2023/02/12 14:51:56;;;;;;;;;13.33;12.33;;;;;;;;5016553;28;45469;-66
2023/02/12 14:54:30;;;;;;;;;16.33;16.00;;;;;;;;5013223;28;45484;-66
2023/02/12 14:57:00;;;;;;;;;16.00;14.00;;;;;;;;5015939;28;45541;-64
2023/02/12 14:59:26;;;;;;;;;15.00;11.33;;;;;;;;5017282;28;45530;-67
2023/02/12 15:01:53;;;;;;;;;15.33;14.00;;;;;;;;5016828;28;45533;-66
2023/02/12 15:04:29;;;;;;;;;14.00;14.00;;;;;;;;5016940;28;46055;-66
2023/02/12 15:07:06;;;;;;;;;11.67;11.33;;;;;;;;5019745;28;45448;-65
2023/02/12 15:09:35;;;;;;;;;15.33;13.33;;;;;;;;5025691;28;45713;-66
2023/02/12 15:12:11;;;;;;;;;15.67;15.67;;;;;;;;5018712;28;45490;-67
2023/02/12 15:14:40;;;;;;;;;18.00;16.67;;;;;;;;5019920;28;45853;-67
2023/02/12 15:17:08;;;;;;;;;14.00;12.67;;;;;;;;5014814;28;45308;-63
2023/02/12 15:19:34;;;;;;;;;17.00;16.00;;;;;;;;5018040;28;45826;-63
2023/02/12 15:21:59;;;;;;;;;19.00;19.00;;;;;;;;5018352;28;45553;-63
2023/02/12 15:24:25;;;;;;;;;18.67;17.67;;;;;;;;5018038;28;46241;-62
2023/02/12 15:26:52;;;;;;;;;19.00;17.00;;;;;;;;5017502;28;45528;-63
2023/02/12 15:29:20;;;;;;;;;22.00;19.00;;;;;;;;5017678;28;45311;-62
2023/02/12 15:31:50;;;;;;;;;19.00;17.00;;;;;;;;5018946;28;45529;-63
2023/02/12 15:34:19;;;;;;;;;22.00;18.00;;;;;;;;5018861;28;45439;-63
2023/02/12 15:36:44;;;;;;;;;18.67;16.67;;;;;;;;5019527;28;45549;-63
2023/02/12 15:39:16;;;;;;;;;20.00;19.33;;;;;;;;5021014;28;45482;-62
2023/02/12 15:41:42;;;;;;;;;21.00;16.67;;;;;;;;5019661;28;45543;-63
2023/02/12 15:44:16;;;;;;;;;22.33;20.00;;;;;;;;5019703;28;47036;-62
2023/02/12 15:46:51;;;;;;;;;20.67;20.33;;;;;;;;5019920;28;45502;-63
2023/02/12 15:49:17;;;;;;;;;24.00;21.33;;;;;;;;5020664;28;45413;-63
2023/02/12 15:51:43;;;;;;;;;26.67;21.67;;;;;;;;5019922;28;45558;-63
2023/02/12 15:54:11;;;;;;;;;20.67;18.00;;;;;;;;5020033;28;45521;-63
2023/02/12 15:56:39;;;;;;;;;22.67;20.00;;;;;;;;5020351;28;45449;-63
2023/02/12 15:59:04;;;;;;;;;19.67;19.67;;;;;;;;5019556;28;45355;-63
2023/02/12 16:01:31;;;;;;;;;19.67;18.67;;;;;;;;5019709;28;45577;-63
2023/02/12 16:03:58;;;;;;;;;17.33;17.00;;;;;;;;5019963;28;45408;-63
2023/02/12 16:06:24;;;;;;;;;23.67;19.67;;;;;;;;5019564;28;45597;-63
2023/02/12 16:09:16;;;;;;;;;18.00;17.67;;;;;;;;5020374;28;45486;-63
2023/02/12 16:11:43;;;;;;;;;18.00;17.00;;;;;;;;5000688;28;45530;-63
2023/02/12 16:14:18;;;;;;;;;18.67;16.33;;;;;;;;5020034;28;47144;-63
2023/02/12 16:16:48;;;;;;;;;26.67;23.67;;;;;;;;5018568;28;46649;-63
2023/02/12 16:19:16;;;;;;;;;23.67;23.00;;;;;;;;5020050;28;45455;-63
2023/02/12 16:21:41;;;;;;;;;21.33;20.67;;;;;;;;5015762;28;45541;-63
2023/02/12 16:24:39;;;;;;;;;18.67;16.67;;;;;;;;5016400;28;45497;-63
2023/02/12 16:27:13;;;;;;;;;19.67;18.00;;;;;;;;5017982;28;45372;-63
2023/02/12 16:29:43;;;;;;;;;21.33;19.00;;;;;;;;5019575;28;45379;-63
2023/02/12 16:32:24;;;;;;;;;20.33;19.33;;;;;;;;5020006;28;45430;-63
2023/02/12 16:34:56;;;;;;;;;20.33;18.67;;;;;;;;5018542;28;46248;-63
2023/02/12 16:37:39;;;;;;;;;22.00;19.67;;;;;;;;5019883;28;45427;-63
2023/02/12 16:40:16;;;;;;;;;21.00;18.00;;;;;;;;5019440;28;45363;-63
2023/02/12 16:42:47;;;;;;;;;20.00;15.33;;;;;;;;5019698;28;45395;-64
2023/02/12 16:45:29;;;;;;;;;22.67;17.33;;;;;;;;5018575;28;45477;-63
2023/02/12 16:47:58;;;;;;;;;20.00;16.33;;;;;;;;5016992;28;45509;-63
2023/02/12 16:50:25;;;;;;;;;20.67;20.00;;;;;;;;5019079;28;45473;-63
2023/02/12 16:52:58;;;;;;;;;30.67;28.00;;;;;;;;5019374;28;45748;-63
2023/02/12 16:55:23;;;;;;;;;18.33;18.00;;;;;;;;5018482;28;46273;-62
2023/02/12 16:57:48;;;;;;;;;23.67;21.67;;;;;;;;5018288;28;45525;-62
2023/02/12 17:00:15;;;;;;;;;22.00;20.00;;;;;;;;5019786;28;45476;-63
2023/02/12 17:02:40;;;;;;;;;24.00;23.00;;;;;;;;5018597;28;45430;-63
2023/02/12 17:05:06;;;;;;;;;19.67;18.00;;;;;;;;5018401;28;46252;-62
2023/02/12 17:07:32;;;;;;;;;26.33;22.33;;;;;;;;5018469;28;45409;-63
2023/02/12 17:09:57;;;;;;;;;20.33;19.33;;;;;;;;5026148;28;45411;-62
2023/02/12 17:12:22;;;;;;;;;26.00;25.00;;;;;;;;5019103;28;45454;-62
2023/02/12 17:14:47;;;;;;;;;25.00;24.00;;;;;;;;5019177;28;45372;-62
2023/02/12 17:17:13;;;;;;;;;28.00;26.00;;;;;;;;5018672;28;45402;-62
2023/02/12 17:19:38;;;;;;;;;30.33;28.33;;;;;;;;5019043;28;45509;-62
2023/02/12 17:22:04;;;;;;;;;36.67;33.33;;;;;;;;5019011;28;45590;-63
2023/02/12 17:24:30;;;;;;;;;51.25;42.00;;;;;;;;5018597;28;46175;-63
2023/02/12 17:26:56;;;;;;;;;38.67;35.00;;;;;;;;5017179;28;45673;-62
2023/02/12 17:29:22;;;;;;;;;32.33;32.00;;;;;;;;5019685;28;45201;-62
2023/02/12 17:31:48;;;;;;;;;42.00;36.33;;;;;;;;5017990;28;46192;-62
2023/02/12 17:34:13;;;;;;;;;37.33;33.33;;;;;;;;5019116;28;45839;-62
2023/02/12 17:36:39;;;;;;;;;41.00;35.00;;;;;;;;5018168;28;45577;-62
2023/02/12 17:39:05;;;;;;;;;49.50;38.50;;;;;;;;5018336;28;45477;-62
2023/02/12 17:41:30;;;;;;;;;51.00;43.00;;;;;;;;5018876;28;45366;-62
2023/02/12 17:43:56;;;;;;;;;42.50;35.25;;;;;;;;5018142;28;45356;-63
2023/02/12 17:46:23;;;;;;;;;42.00;37.00;;;;;;;;5010762;28;45454;-67
2023/02/12 17:48:48;;;;;;;;;48.25;39.00;;;;;;;;5014340;28;45427;-67
2023/02/12 17:51:13;;;;;;;;;41.67;32.00;;;;;;;;5016709;28;45511;-65
2023/02/12 17:53:39;;;;;;;;;47.00;37.25;;;;;;;;5017661;28;46180;-67
2023/02/12 17:56:08;;;;;;;;;40.33;34.33;;;;;;;;5018343;28;45841;-65
2023/02/12 17:58:33;;;;;;;;;36.00;31.33;;;;;;;;5017921;28;45772;-66
2023/02/12 18:01:03;;;;;;;;;38.00;31.00;;;;;;;;5016826;28;45403;-66
2023/02/12 18:03:28;;;;;;;;;40.33;33.67;;;;;;;;5013684;28;46267;-66
2023/02/12 18:05:53;;;;;;;;;39.33;32.00;;;;;;;;5018070;28;45290;-62
2023/02/12 18:08:18;;;;;;;;;37.67;34.00;;;;;;;;5016721;28;45253;-62
2023/02/12 18:10:44;;;;;;;;;36.00;31.00;;;;;;;;5017602;28;45892;-63
2023/02/12 18:13:09;;;;;;;;;40.00;33.67;;;;;;;;5013375;28;46075;-63
2023/02/12 18:15:35;;;;;;;;;43.33;34.00;;;;;;;;5007830;28;45447;-63
2023/02/12 18:18:00;;;;;;;;;37.67;34.00;;;;;;;;5015454;28;45590;-64
2023/02/12 18:20:25;;;;;;;;;46.33;38.33;;;;;;;;5012093;28;45599;-63
2023/02/12 18:22:51;;;;;;;;;49.33;39.33;;;;;;;;5013847;28;45771;-63
2023/02/12 18:25:16;;;;;;;;;53.00;41.00;;;;;;;;5016075;28;45256;-64
2023/02/12 18:27:41;;;;;;;;;50.50;37.75;;;;;;;;5013206;28;45498;-64
2023/02/12 18:30:07;;;;;;;;;49.50;40.75;;;;;;;;5015736;28;45363;-64
2023/02/12 18:32:33;;;;;;;;;49.50;41.25;;;;;;;;5013536;28;46207;-63
2023/02/12 18:34:58;;;;;;;;;54.00;42.25;;;;;;;;5013328;28;45417;-63
2023/02/12 18:37:23;;;;;;;;;53.50;43.00;;;;;;;;5006824;28;45479;-63
2023/02/12 18:39:48;;;;;;;;;57.00;45.25;;;;;;;;5010549;28;45450;-63
2023/02/12 18:42:13;;;;;;;;;53.75;41.25;;;;;;;;5015742;28;45502;-63
2023/02/12 18:44:39;;;;;;;;;48.50;39.00;;;;;;;;5012302;28;45425;-63
2023/02/12 18:47:04;;;;;;;;;41.75;36.25;;;;;;;;5013958;28;46393;-63
2023/02/12 18:49:29;;;;;;;;;45.33;39.00;;;;;;;;5011678;28;45422;-64
2023/02/12 18:51:55;;;;;;;;;48.00;39.75;;;;;;;;5015125;28;45482;-63
2023/02/12 18:54:20;;;;;;;;;52.50;38.00;;;;;;;;5013800;28;46124;-63
2023/02/12 18:56:48;;;;;;;;;46.25;37.25;;;;;;;;5016711;28;45704;-63
2023/02/12 18:59:14;;;;;;;;;44.00;38.00;;;;;;;;5016471;28;45565;-63
2023/02/12 19:01:40;;;;;;;;;52.75;38.25;;;;;;;;5013229;28;47182;-63
2023/02/12 19:04:06;;;;;;;;;35.33;34.33;;;;;;;;5016516;28;45542;-63
2023/02/12 19:06:31;;;;;;;;;42.50;37.50;;;;;;;;5008757;28;45379;-63
2023/02/12 19:08:58;;;;;;;;;44.33;38.67;;;;;;;;5013183;28;45649;-63
2023/02/12 19:11:24;;;;;;;;;43.33;34.67;;;;;;;;5015560;28;46600;-63
2023/02/12 19:13:49;;;;;;;;;47.33;36.00;;;;;;;;5015667;28;45429;-63
2023/02/12 19:16:15;;;;;;;;;43.00;34.00;;;;;;;;5014316;28;45458;-63
2023/02/12 19:18:41;;;;;;;;;43.33;34.67;;;;;;;;5015434;28;45512;-63
2023/02/12 19:21:07;;;;;;;;;42.67;35.33;;;;;;;;5015985;28;46178;-63
2023/02/12 19:23:32;;;;;;;;;35.67;30.67;;;;;;;;5014737;28;45498;-62
2023/02/12 19:26:05;;;;;;;;;45.00;35.67;;;;;;;;5010404;28;45489;-63
2023/02/12 19:28:30;;;;;;;;;42.00;36.33;;;;;;;;5014336;28;45860;-63
2023/02/12 19:30:55;;;;;;;;;43.33;33.67;;;;;;;;5014036;28;45489;-63
2023/02/12 19:33:21;;;;;;;;;44.67;36.00;;;;;;;;5015356;28;46113;-63
2023/02/12 19:35:49;;;;;;;;;44.00;36.00;;;;;;;;5015786;28;45498;-63
2023/02/12 19:38:14;;;;;;;;;39.67;32.33;;;;;;;;5014532;28;45627;-63
2023/02/12 19:40:39;;;;;;;;;42.67;32.67;;;;;;;;5016251;28;46093;-63
2023/02/12 19:43:05;;;;;;;;;47.00;37.75;;;;;;;;5016821;28;45398;-63
2023/02/12 19:45:31;;;;;;;;;39.33;35.33;;;;;;;;5014851;28;45453;-63
2023/02/12 19:47:56;;;;;;;;;43.75;36.50;;;;;;;;5014415;28;45358;-63
2023/02/12 19:50:21;;;;;;;;;47.50;36.50;;;;;;;;5016101;28;45490;-64
2023/02/12 19:52:46;;;;;;;;;40.00;34.75;;;;;;;;5018077;28;45417;-63
2023/02/12 19:55:11;;;;;;;;;33.75;31.50;;;;;;;;5019033;28;45530;-63
2023/02/12 19:57:37;;;;;;;;;44.33;35.00;;;;;;;;5018841;28;45355;-63
2023/02/12 20:00:03;;;;;;;;;41.50;36.00;;;;;;;;5019458;28;47258;-63
2023/02/12 20:02:28;;;;;;;;;46.00;38.25;;;;;;;;5012229;28;45287;-63
2023/02/12 20:04:53;;;;;;;;;44.75;37.75;;;;;;;;5010688;28;45656;-63
2023/02/12 20:07:18;;;;;;;;;49.25;37.75;;;;;;;;5017146;28;46710;-63
2023/02/12 20:09:43;;;;;;;;;46.25;36.75;;;;;;;;5018358;28;45430;-64
2023/02/12 20:12:09;;;;;;;;;43.00;37.50;;;;;;;;5017524;28;45537;-63
2023/02/12 20:14:34;;;;;;;;;49.00;38.50;;;;;;;;5019114;28;45422;-63
2023/02/12 20:16:59;;;;;;;;;47.75;37.25;;;;;;;;5017281;28;45942;-63
2023/02/12 20:19:26;;;;;;;;;47.00;37.75;;;;;;;;5016038;28;45874;-67
2023/02/12 20:21:54;;;;;;;;;48.50;41.25;;;;;;;;5017295;28;45462;-67
2023/02/12 20:24:20;;;;;;;;;52.25;41.75;;;;;;;;5018212;28;45478;-67
2023/02/12 20:26:45;;;;;;;;;53.75;43.25;;;;;;;;5016113;28;45507;-68
2023/02/12 20:29:10;;;;;;;;;49.75;41.75;;;;;;;;5018892;28;45650;-63
2023/02/12 20:31:36;;;;;;;;;55.50;42.00;;;;;;;;5017761;28;45407;-67
2023/02/12 20:34:06;;;;;;;;;54.50;43.75;;;;;;;;5007356;28;47336;-64
2023/02/12 20:36:33;;;;;;;;;67.75;52.50;;;;;;;;5017447;28;45364;-64
2023/02/12 20:38:58;;;;;;;;;59.75;47.50;;;;;;;;5017783;28;46419;-65
2023/02/12 20:41:24;;;;;;;;;51.25;40.75;;;;;;;;5019210;28;45464;-64
2023/02/12 20:43:49;;;;;;;;;54.00;43.50;;;;;;;;5015769;28;45435;-64
2023/02/12 20:46:16;;;;;;;;;58.50;46.25;;;;;;;;5018243;28;45511;-64
2023/02/12 20:48:41;;;;;;;;;63.25;47.25;;;;;;;;5016805;28;46149;-63
2023/02/12 20:51:15;;;;;;;;;55.50;43.00;;;;;;;;5015337;28;45711;-65
2023/02/12 20:53:41;;;;;;;;;62.25;46.50;;;;;;;;5017228;28;45529;-65
2023/02/12 20:56:08;;;;;;;;;51.50;40.25;;;;;;;;5016741;28;45763;-65
2023/02/12 20:58:35;;;;;;;;;51.00;40.25;;;;;;;;5012144;28;46081;-64
2023/02/12 21:01:04;;;;;;;;;52.25;41.00;;;;;;;;5015369;28;45657;-63
2023/02/12 21:03:30;;;;;;;;;54.00;44.25;;;;;;;;5019102;28;45517;-63
2023/02/12 21:05:55;;;;;;;;;55.75;42.00;;;;;;;;5018143;28;45482;-63
2023/02/12 21:08:20;;;;;;;;;56.25;45.00;;;;;;;;5017932;28;46713;-63
2023/02/12 21:10:45;;;;;;;;;50.00;40.25;;;;;;;;5018622;28;45437;-64
2023/02/12 21:13:10;;;;;;;;;54.75;43.75;;;;;;;;5017287;28;45596;-64
2023/02/12 21:15:35;;;;;;;;;46.50;39.25;;;;;;;;5017315;28;45700;-64
2023/02/12 21:18:01;;;;;;;;;54.50;44.00;;;;;;;;5014951;28;45756;-64
2023/02/12 21:20:26;;;;;;;;;55.50;43.25;;;;;;;;5017536;28;45551;-64
2023/02/12 21:22:51;;;;;;;;;55.00;44.00;;;;;;;;5010914;28;45633;-64
2023/02/12 21:25:17;;;;;;;;;56.00;46.00;;;;;;;;5011639;28;45510;-64
2023/02/12 21:27:42;;;;;;;;;65.75;49.00;;;;;;;;5011338;28;46612;-64
2023/02/12 21:30:08;;;;;;;;;64.00;49.75;;;;;;;;5016910;28;45445;-63
2023/02/12 21:32:33;;;;;;;;;67.25;51.25;;;;;;;;5017464;28;45497;-64
2023/02/12 21:34:59;;;;;;;;;77.75;56.50;;;;;;;;5018683;28;45344;-64